4XCWH LLHZ-LLHA
Flight info
| Callsign | 4XCWH |
|---|---|
| Flight time | 0h 18m |
| Altitude | 1500 |
| Route | CVFR |
| Aircraft | BE36/L-VD/A |
Departure
| Time | 2026-04-28 18:12 |
|---|---|
| Airport | Herzliya Airport (LLHZ) |
Arrival
| Time | 2026-04-28 18:30 |
|---|---|
| Airport | Uri Michaeli Haifa International Airport (LLHA) |
| Time | Latitude | Longitude | Altitude | Speed | Heading |
|---|---|---|---|---|---|
| 2026-04-28 18:11 | 32.21825 | 34.86953 | 1843 ft | 167 kts | 38° |
| 2026-04-28 18:12 | 32.22769 | 34.87860 | 1772 ft | 178 kts | 36° |
| 2026-04-28 18:12 | 32.23816 | 34.88561 | 1971 ft | 166 kts | 12° |
| 2026-04-28 18:12 | 32.24983 | 34.88887 | 1996 ft | 171 kts | 7° |
| 2026-04-28 18:12 | 32.26166 | 34.89118 | 1925 ft | 182 kts | 7° |
| 2026-04-28 18:13 | 32.27351 | 34.89331 | 1477 ft | 158 kts | 6° |
| 2026-04-28 18:13 | 32.28479 | 34.89496 | 1467 ft | 164 kts | 6° |
| 2026-04-28 18:13 | 32.29620 | 34.89710 | 1583 ft | 167 kts | 5° |
| 2026-04-28 18:13 | 32.30791 | 34.89875 | 1446 ft | 176 kts | 10° |
| 2026-04-28 18:14 | 32.31944 | 34.90190 | 1802 ft | 157 kts | 2° |
| 2026-04-28 18:14 | 32.33058 | 34.90187 | 1936 ft | 165 kts | 356° |
| 2026-04-28 18:14 | 32.34280 | 34.90324 | 1752 ft | 177 kts | 1° |
| 2026-04-28 18:14 | 32.35524 | 34.90387 | 1671 ft | 179 kts | 357° |
| 2026-04-28 18:15 | 32.36625 | 34.90425 | 2461 ft | 141 kts | 1° |
| 2026-04-28 18:15 | 32.37063 | 34.90457 | 2620 ft | 144 kts | 357° |
| 2026-04-28 18:15 | 32.37109 | 34.90458 | 2634 ft | 144 kts | 357° |
| 2026-04-28 18:15 | 32.38180 | 34.90431 | 1991 ft | 155 kts | 355° |
| 2026-04-28 18:16 | 32.39247 | 34.90467 | 1414 ft | 154 kts | 2° |
| 2026-04-28 18:16 | 32.40375 | 34.90566 | 1456 ft | 167 kts | 0° |
| 2026-04-28 18:16 | 32.41554 | 34.90636 | 1562 ft | 175 kts | 0° |
| 2026-04-28 18:16 | 32.42773 | 34.90716 | 1603 ft | 170 kts | 0° |
| 2026-04-28 18:17 | 32.43832 | 34.90792 | 1611 ft | 159 kts | 4° |
| 2026-04-28 18:17 | 32.44959 | 34.90948 | 1667 ft | 171 kts | 3° |
| 2026-04-28 18:17 | 32.46170 | 34.91201 | 1606 ft | 180 kts | 6° |
| 2026-04-28 18:17 | 32.47417 | 34.91395 | 1526 ft | 184 kts | 3° |
| 2026-04-28 18:18 | 32.48671 | 34.91594 | 1565 ft | 180 kts | 14° |
| 2026-04-28 18:18 | 32.49850 | 34.91992 | 1625 ft | 170 kts | 9° |
| 2026-04-28 18:18 | 32.50823 | 34.92268 | 1575 ft | 136 kts | 13° |
| 2026-04-28 18:18 | 32.51008 | 34.92335 | 1543 ft | 138 kts | 14° |
| 2026-04-28 18:19 | 32.51504 | 34.92515 | 1492 ft | 144 kts | 14° |
| 2026-04-28 18:19 | 32.51685 | 34.92579 | 1457 ft | 146 kts | 14° |
| 2026-04-28 18:20 | 32.52681 | 34.92927 | 1318 ft | 153 kts | 14° |
| 2026-04-28 18:20 | 32.53661 | 34.93223 | 1444 ft | 140 kts | 9° |
| 2026-04-28 18:20 | 32.54630 | 34.93460 | 1499 ft | 142 kts | 6° |
| 2026-04-28 18:20 | 32.55599 | 34.93741 | 1462 ft | 144 kts | 10° |
| 2026-04-28 18:21 | 32.56562 | 34.94036 | 1555 ft | 141 kts | 15° |
| 2026-04-28 18:21 | 32.57480 | 34.94397 | 1596 ft | 141 kts | 359° |
| 2026-04-28 18:21 | 32.58504 | 34.94574 | 1356 ft | 159 kts | 10° |
| 2026-04-28 18:21 | 32.59601 | 34.94826 | 1455 ft | 146 kts | 4° |
| 2026-04-28 18:22 | 32.60530 | 34.94937 | 1377 ft | 145 kts | 4° |
| 2026-04-28 18:22 | 32.61598 | 34.95101 | 1454 ft | 163 kts | 4° |
| 2026-04-28 18:22 | 32.62750 | 34.95221 | 1500 ft | 174 kts | 0° |
| 2026-04-28 18:22 | 32.63963 | 34.95452 | 1477 ft | 180 kts | 7° |
| 2026-04-28 18:23 | 32.65174 | 34.95725 | 1677 ft | 171 kts | 7° |
| 2026-04-28 18:23 | 32.66346 | 34.95938 | 1834 ft | 171 kts | 5° |
| 2026-04-28 18:23 | 32.67450 | 34.96110 | 1507 ft | 146 kts | 4° |
| 2026-04-28 18:23 | 32.68502 | 34.96258 | 1427 ft | 165 kts | 1° |
| 2026-04-28 18:24 | 32.69679 | 34.96438 | 1460 ft | 175 kts | 6° |
| 2026-04-28 18:24 | 32.70450 | 34.96593 | 1709 ft | 167 kts | 6° |
| 2026-04-28 18:24 | 32.71998 | 34.96317 | 1712 ft | 175 kts | 340° |
| 2026-04-28 18:24 | 32.73088 | 34.95621 | 1425 ft | 187 kts | 326° |
| 2026-04-28 18:25 | 32.74127 | 34.94741 | 1439 ft | 180 kts | 322° |
| 2026-04-28 18:25 | 32.75106 | 34.93795 | 1385 ft | 178 kts | 318° |
| 2026-04-28 18:25 | 32.75990 | 34.93161 | 1521 ft | 176 kts | 347° |
| 2026-04-28 18:26 | 32.77445 | 34.93528 | 1350 ft | 188 kts | 17° |
| 2026-04-28 18:26 | 32.78651 | 34.94007 | 1438 ft | 180 kts | 11° |
| 2026-04-28 18:26 | 32.79849 | 34.94387 | 1490 ft | 179 kts | 18° |
| 2026-04-28 18:26 | 32.80853 | 34.95300 | 1378 ft | 181 kts | 40° |
| 2026-04-28 18:27 | 32.81719 | 34.96177 | 1260 ft | 151 kts | 35° |
| 2026-04-28 18:27 | 32.82520 | 34.96907 | 1086 ft | 138 kts | 30° |
| 2026-04-28 18:27 | 32.83274 | 34.97521 | 981 ft | 127 kts | 26° |
| 2026-04-28 18:27 | 32.84013 | 34.98273 | 713 ft | 152 kts | 52° |
| 2026-04-28 18:28 | 32.84587 | 34.99322 | 800 ft | 153 kts | 54° |
| 2026-04-28 18:28 | 32.85116 | 35.00420 | 818 ft | 156 kts | 56° |
| 2026-04-28 18:28 | 32.85699 | 35.01499 | 679 ft | 166 kts | 69° |
| 2026-04-28 18:28 | 32.85248 | 35.02600 | 514 ft | 147 kts | 157° |
| 2026-04-28 18:29 | 32.84287 | 35.02939 | 513 ft | 138 kts | 161° |
| 2026-04-28 18:29 | 32.83496 | 35.03294 | 365 ft | 110 kts | 160° |
| 2026-04-28 18:29 | 32.82822 | 35.03577 | 244 ft | 97 kts | 160° |
| 2026-04-28 18:29 | 32.82206 | 35.03864 | 138 ft | 100 kts | 162° |
| 2026-04-28 18:30 | 32.81573 | 35.04134 | 21 ft | 89 kts | 163° |
| 2026-04-28 18:30 | 32.81387 | 35.04209 | 14 ft | 76 kts | 162° |
| 2026-04-28 18:30 | 32.81101 | 35.04495 | 13 ft | 12 kts | 59° |